createdAt,value
2023-01-22T00:00:27.270Z,922
2023-01-22T00:01:40.958Z,924
2023-01-22T00:02:53.902Z,925
2023-01-22T00:03:58.063Z,926
2023-01-22T00:05:11.043Z,925
2023-01-22T00:06:24.850Z,924
2023-01-22T00:07:27.767Z,923
2023-01-22T00:08:41.384Z,924
2023-01-22T00:09:54.223Z,924
2023-01-22T00:10:57.911Z,924
2023-01-22T00:12:10.819Z,920
2023-01-22T00:13:24.388Z,922
2023-01-22T00:14:27.344Z,920
2023-01-22T00:15:41.374Z,920
2023-01-22T00:16:54.433Z,921
2023-01-22T00:18:08.403Z,923
2023-01-22T00:19:11.319Z,924
2023-01-22T00:20:24.880Z,920
2023-01-22T00:21:37.800Z,918
2023-01-22T00:22:41.356Z,920
2023-01-22T00:23:54.324Z,918
2023-01-22T00:25:07.883Z,917
2023-01-22T00:26:10.918Z,916
2023-01-22T00:27:24.856Z,914
2023-01-22T00:28:37.758Z,913
2023-01-22T00:29:41.399Z,912
2023-01-22T00:30:54.349Z,910
2023-01-22T00:32:08.544Z,912
2023-01-22T00:33:11.693Z,908
2023-01-22T00:34:25.894Z,908
2023-01-22T00:35:38.765Z,905
2023-01-22T00:36:42.366Z,907
2023-01-22T00:37:55.264Z,905
2023-01-22T00:39:08.889Z,906
2023-01-22T00:40:11.746Z,904
2023-01-22T00:41:25.368Z,903
2023-01-22T00:42:38.281Z,906
2023-01-22T00:43:52.969Z,906
2023-01-22T00:44:56.041Z,906
2023-01-22T00:46:09.950Z,907
2023-01-22T00:47:12.989Z,904
2023-01-22T00:48:26.876Z,901
2023-01-22T00:49:39.796Z,903
2023-01-22T00:50:53.411Z,903
2023-01-22T00:51:56.555Z,901
2023-01-22T00:53:10.374Z,903
2023-01-22T00:54:23.282Z,902
2023-01-22T00:55:26.853Z,899
2023-01-22T00:56:39.790Z,899
2023-01-22T00:57:53.409Z,897
2023-01-22T00:58:58.557Z,898
2023-01-22T01:00:12.371Z,896
2023-01-22T01:01:15.299Z,896
2023-01-22T01:02:28.872Z,896
2023-01-22T01:03:41.780Z,897
2023-01-22T01:04:55.405Z,898
2023-01-22T01:05:58.336Z,899
2023-01-22T01:07:11.920Z,898
2023-01-22T01:08:24.823Z,897
2023-01-22T01:09:28.899Z,895
2023-01-22T01:10:41.827Z,897
2023-01-22T01:11:55.373Z,894
2023-01-22T01:12:58.327Z,893
2023-01-22T01:14:11.912Z,892
2023-01-22T01:15:24.827Z,892
2023-01-22T01:16:38.494Z,890
2023-01-22T01:17:41.435Z,889
2023-01-22T01:18:54.883Z,888
2023-01-22T01:19:57.783Z,886
2023-01-22T01:21:11.382Z,885
2023-01-22T01:22:24.300Z,883
2023-01-22T01:23:37.862Z,882
2023-01-22T01:24:40.810Z,882
2023-01-22T01:25:55.383Z,881
2023-01-22T01:26:58.295Z,880
2023-01-22T01:28:11.908Z,881
2023-01-22T01:29:24.812Z,880
2023-01-22T01:30:28.373Z,878
2023-01-22T01:31:41.317Z,878
2023-01-22T01:32:54.908Z,875
2023-01-22T01:33:57.815Z,874
2023-01-22T01:35:11.402Z,874
2023-01-22T01:36:46.376Z,873
2023-01-22T01:37:31.406Z,870
2023-01-22T01:38:44.298Z,869
2023-01-22T01:39:57.902Z,866
2023-01-22T01:41:00.833Z,863
2023-01-22T01:42:14.424Z,865
2023-01-22T01:43:37.384Z,865
2023-01-22T01:44:31.407Z,866
2023-01-22T01:45:44.326Z,866
2023-01-22T01:46:57.964Z,865
2023-01-22T01:48:00.943Z,864
2023-01-22T01:49:14.912Z,865
2023-01-22T01:50:27.811Z,865
2023-01-22T01:51:31.397Z,863
2023-01-22T01:52:44.310Z,865
2023-01-22T01:53:57.906Z,864
2023-01-22T01:55:00.812Z,865
2023-01-22T01:56:14.388Z,863
2023-01-22T01:57:27.313Z,861
2023-01-22T01:58:40.887Z,861
2023-01-22T01:59:43.801Z,864
2023-01-22T02:00:57.457Z,862
2023-01-22T02:02:10.566Z,861
2023-01-22T02:03:14.407Z,859
2023-01-22T02:04:27.322Z,859
2023-01-22T02:05:40.973Z,858
2023-01-22T02:06:43.923Z,856
2023-01-22T02:07:57.394Z,857
2023-01-22T02:09:10.301Z,857
2023-01-22T02:10:13.909Z,860
2023-01-22T02:11:26.804Z,858
2023-01-22T02:12:40.370Z,858
2023-01-22T02:13:53.270Z,858
2023-01-22T02:14:56.915Z,854
2023-01-22T02:16:09.840Z,854
2023-01-22T02:17:23.892Z,855
2023-01-22T02:18:26.828Z,853
2023-01-22T02:19:40.468Z,851
2023-01-22T02:20:53.400Z,852
2023-01-22T02:21:56.931Z,852
2023-01-22T02:23:09.863Z,854
2023-01-22T02:24:23.386Z,858
2023-01-22T02:25:26.363Z,860
2023-01-22T02:26:40.394Z,865
2023-01-22T02:27:53.269Z,867
2023-01-22T02:28:56.937Z,872
2023-01-22T02:30:09.829Z,876
2023-01-22T02:31:23.560Z,877
2023-01-22T02:32:36.570Z,882
2023-01-22T02:33:40.877Z,883
2023-01-22T02:34:53.783Z,886
2023-01-22T02:36:07.490Z,887
2023-01-22T02:37:10.395Z,889
2023-01-22T02:38:23.907Z,892
2023-01-22T02:39:36.822Z,892
2023-01-22T02:40:40.384Z,891
2023-01-22T02:41:53.411Z,891
2023-01-22T02:43:06.906Z,893
2023-01-22T02:44:19.810Z,893
2023-01-22T02:45:23.970Z,891
2023-01-22T02:46:37.024Z,892
2023-01-22T02:47:50.901Z,889
2023-01-22T02:48:53.819Z,885
2023-01-22T02:50:07.446Z,885
2023-01-22T02:51:20.498Z,884
2023-01-22T02:52:24.429Z,883
2023-01-22T02:53:37.327Z,881
2023-01-22T02:54:50.943Z,883
2023-01-22T02:55:53.855Z,885
2023-01-22T02:57:07.430Z,883
2023-01-22T02:58:20.339Z,882
2023-01-22T02:59:23.932Z,882
2023-01-22T03:00:36.839Z,882
2023-01-22T03:01:50.425Z,883
2023-01-22T03:03:03.438Z,883
2023-01-22T03:04:06.963Z,880
2023-01-22T03:05:19.879Z,878
2023-01-22T03:06:33.451Z,878
2023-01-22T03:07:36.372Z,876
2023-01-22T03:08:49.937Z,877
2023-01-22T03:10:02.831Z,875
2023-01-22T03:11:06.393Z,876
2023-01-22T03:12:19.307Z,874
2023-01-22T03:13:32.930Z,870
2023-01-22T03:14:45.847Z,871
2023-01-22T03:15:49.461Z,872
2023-01-22T03:17:02.417Z,871
2023-01-22T03:18:16.431Z,871
2023-01-22T03:19:19.352Z,867
2023-01-22T03:20:33.427Z,867
2023-01-22T03:21:46.325Z,864
2023-01-22T03:22:49.904Z,864
2023-01-22T03:24:02.809Z,864
2023-01-22T03:25:16.452Z,865
2023-01-22T03:26:19.366Z,864
2023-01-22T03:27:32.935Z,864
2023-01-22T03:28:45.818Z,863
2023-01-22T03:29:59.457Z,862
2023-01-22T03:31:02.389Z,861
2023-01-22T03:32:16.558Z,861
2023-01-22T03:33:29.644Z,859
2023-01-22T03:34:33.442Z,858
2023-01-22T03:35:46.365Z,858
2023-01-22T03:36:59.941Z,857
2023-01-22T03:38:02.886Z,858
2023-01-22T03:39:16.418Z,856
2023-01-22T03:40:29.341Z,856
2023-01-22T03:41:42.909Z,856
2023-01-22T03:42:45.863Z,854
2023-01-22T03:43:59.428Z,851
2023-01-22T03:45:12.328Z,850
2023-01-22T03:46:16.473Z,848
2023-01-22T03:47:29.505Z,848
2023-01-22T03:48:43.408Z,849
2023-01-22T03:49:46.404Z,848
2023-01-22T03:50:59.962Z,849
2023-01-22T03:52:12.954Z,848
2023-01-22T03:53:16.935Z,846
2023-01-22T03:54:29.786Z,846
2023-01-22T03:55:43.422Z,845
2023-01-22T03:56:56.294Z,841
2023-01-22T03:57:59.902Z,842
2023-01-22T03:59:12.800Z,841
2023-01-22T04:00:26.454Z,840
2023-01-22T04:01:29.388Z,839
2023-01-22T04:02:43.532Z,841
2023-01-22T04:03:56.566Z,838
2023-01-22T04:05:00.414Z,839
2023-01-22T04:06:13.287Z,836
2023-01-22T04:07:26.927Z,833
2023-01-22T04:08:29.834Z,834
2023-01-22T04:09:43.431Z,834
2023-01-22T04:10:56.307Z,836
2023-01-22T04:12:09.945Z,834
2023-01-22T04:13:12.865Z,833
2023-01-22T04:14:26.484Z,833
2023-01-22T04:15:39.356Z,833
2023-01-22T04:16:43.310Z,833
2023-01-22T04:17:56.456Z,833
2023-01-22T04:19:09.973Z,830
2023-01-22T04:20:12.898Z,830
2023-01-22T04:21:26.433Z,830
2023-01-22T04:22:39.360Z,826
2023-01-22T04:23:52.915Z,825
2023-01-22T04:24:55.803Z,826
2023-01-22T04:26:09.463Z,826
2023-01-22T04:27:22.378Z,823
2023-01-22T04:28:25.958Z,825
2023-01-22T04:29:38.879Z,823
2023-01-22T04:30:52.506Z,822
2023-01-22T04:31:55.601Z,821
2023-01-22T04:33:09.459Z,824
2023-01-22T04:34:22.365Z,822
2023-01-22T04:35:35.945Z,819
2023-01-22T04:36:38.861Z,817
2023-01-22T04:37:52.443Z,816
2023-01-22T04:39:05.364Z,814
2023-01-22T04:40:08.956Z,813
2023-01-22T04:41:21.853Z,811
2023-01-22T04:42:35.931Z,811
2023-01-22T04:43:38.969Z,809
2023-01-22T04:44:52.432Z,806
2023-01-22T04:46:05.355Z,805
2023-01-22T04:47:08.922Z,806
2023-01-22T04:48:21.845Z,802
2023-01-22T04:49:35.467Z,801
2023-01-22T04:50:48.386Z,801
2023-01-22T04:51:52.472Z,800
2023-01-22T04:53:05.392Z,800
2023-01-22T04:54:18.914Z,797
2023-01-22T04:55:21.861Z,795
2023-01-22T04:56:35.940Z,793
2023-01-22T04:57:48.843Z,791
2023-01-22T04:58:52.415Z,789
2023-01-22T05:00:05.510Z,788
2023-01-22T05:01:19.489Z,785
2023-01-22T05:02:22.575Z,787
2023-01-22T05:03:36.452Z,786
2023-01-22T05:04:49.379Z,785
2023-01-22T05:05:52.921Z,782
2023-01-22T05:07:05.853Z,781
2023-01-22T05:08:19.416Z,779
2023-01-22T05:09:32.329Z,775
2023-01-22T05:10:36.430Z,775
2023-01-22T05:11:49.384Z,775
2023-01-22T05:13:02.936Z,775
2023-01-22T05:14:05.856Z,774
2023-01-22T05:15:24.499Z,771
2023-01-22T05:16:27.934Z,769
2023-01-22T05:17:41.553Z,767
2023-01-22T05:18:54.467Z,764
2023-01-22T05:19:58.563Z,763
2023-01-22T05:21:11.660Z,765
2023-01-22T05:22:25.456Z,762
2023-01-22T05:23:28.382Z,762
2023-01-22T05:24:41.968Z,763
2023-01-22T05:25:54.878Z,762
2023-01-22T05:26:58.454Z,761
2023-01-22T05:28:11.296Z,761
2023-01-22T05:29:24.958Z,759
2023-01-22T05:30:27.897Z,760
2023-01-22T05:31:42.016Z,761
2023-01-22T05:32:55.039Z,761
2023-01-22T05:33:58.908Z,759
2023-01-22T05:35:11.813Z,757
2023-01-22T05:36:25.480Z,758
2023-01-22T05:37:28.415Z,759
2023-01-22T05:38:41.957Z,758
2023-01-22T05:39:54.874Z,757
2023-01-22T05:40:58.968Z,756
2023-01-22T05:42:11.926Z,757
2023-01-22T05:43:25.548Z,754
2023-01-22T05:44:28.456Z,750
2023-01-22T05:45:42.053Z,749
2023-01-22T05:46:54.966Z,749
2023-01-22T05:48:08.457Z,749
2023-01-22T05:49:11.386Z,750
2023-01-22T05:50:25.433Z,750
2023-01-22T05:51:38.340Z,749
2023-01-22T05:52:41.966Z,747
2023-01-22T05:53:54.878Z,745
2023-01-22T05:55:08.426Z,744
2023-01-22T05:56:11.347Z,742
2023-01-22T05:57:25.037Z,740
2023-01-22T05:58:37.938Z,739
2023-01-22T05:59:51.439Z,738
2023-01-22T06:00:54.345Z,739
2023-01-22T06:02:07.960Z,738
2023-01-22T06:03:20.912Z,737
2023-01-22T06:04:24.970Z,738
2023-01-22T06:05:38.193Z,737
2023-01-22T06:06:51.964Z,737
2023-01-22T06:07:54.936Z,736
2023-01-22T06:09:08.466Z,735
2023-01-22T06:10:21.435Z,738
2023-01-22T06:11:25.027Z,738
2023-01-22T06:12:38.036Z,736
2023-01-22T06:13:52.005Z,736
2023-01-22T06:14:55.120Z,735
2023-01-22T06:16:09.231Z,735
2023-01-22T06:17:22.186Z,736
2023-01-22T06:18:26.206Z,733
2023-01-22T06:19:39.127Z,732
2023-01-22T06:20:52.962Z,732
2023-01-22T06:21:56.021Z,730
2023-01-22T06:23:09.987Z,731
2023-01-22T06:24:22.894Z,731
2023-01-22T06:25:37.713Z,728
2023-01-22T06:26:40.995Z,727
2023-01-22T06:27:54.515Z,727
2023-01-22T06:28:57.467Z,727
2023-01-22T06:30:10.972Z,725
2023-01-22T06:31:24.107Z,727
2023-01-22T06:32:37.986Z,724
2023-01-22T06:33:40.898Z,722
2023-01-22T06:34:54.515Z,721
2023-01-22T06:36:07.513Z,723
2023-01-22T06:37:11.473Z,723
2023-01-22T06:38:24.366Z,721
2023-01-22T06:39:38.016Z,719
2023-01-22T06:40:40.996Z,717
2023-01-22T06:41:54.962Z,718
2023-01-22T06:43:10.345Z,719
2023-01-22T06:44:14.463Z,718
2023-01-22T06:45:27.411Z,719
2023-01-22T06:46:41.086Z,719
2023-01-22T06:47:44.145Z,717
2023-01-22T06:48:57.955Z,716
2023-01-22T06:50:10.852Z,715
2023-01-22T06:51:14.510Z,716
2023-01-22T06:52:27.526Z,716
2023-01-22T06:53:41.466Z,715
2023-01-22T06:54:44.463Z,713
2023-01-22T06:55:57.962Z,713
2023-01-22T06:57:11.000Z,714
2023-01-22T06:58:14.953Z,712
2023-01-22T06:59:27.850Z,711
2023-01-22T07:00:41.494Z,710
2023-01-22T07:01:54.418Z,712
2023-01-22T07:02:57.949Z,710
2023-01-22T07:04:10.857Z,709
2023-01-22T07:05:24.472Z,704
2023-01-22T07:06:27.563Z,703
2023-01-22T07:07:41.591Z,699
2023-01-22T07:08:54.519Z,699
2023-01-22T07:09:58.488Z,701
2023-01-22T07:11:11.420Z,701
2023-01-22T07:12:24.986Z,703
2023-01-22T07:13:37.881Z,702
2023-01-22T07:14:41.524Z,703
2023-01-22T07:15:54.521Z,701
2023-01-22T07:17:08.476Z,705
2023-01-22T07:18:11.389Z,708
2023-01-22T07:19:24.949Z,717
2023-01-22T07:20:37.987Z,726
2023-01-22T07:21:41.449Z,741
2023-01-22T07:22:54.361Z,799
2023-01-22T07:24:07.973Z,814
2023-01-22T07:25:20.893Z,842
2023-01-22T07:26:24.472Z,873
2023-01-22T07:27:37.375Z,903
2023-01-22T07:28:50.995Z,927
2023-01-22T07:29:53.938Z,933
2023-01-22T07:31:07.606Z,942
2023-01-22T07:32:20.591Z,944
2023-01-22T07:33:34.475Z,948
2023-01-22T07:34:37.578Z,949
2023-01-22T07:35:51.510Z,957
2023-01-22T07:37:04.422Z,956
2023-01-22T07:38:08.004Z,957
2023-01-22T07:39:21.121Z,955
2023-01-22T07:40:34.974Z,960
2023-01-22T07:41:37.933Z,964
2023-01-22T07:42:51.490Z,965
2023-01-22T07:44:04.385Z,968
2023-01-22T07:45:08.058Z,971
2023-01-22T07:46:21.037Z,972
2023-01-22T07:47:34.981Z,971
2023-01-22T07:48:37.935Z,971
2023-01-22T07:49:51.694Z,975
2023-01-22T07:51:04.668Z,975
2023-01-22T07:52:18.482Z,974
2023-01-22T07:53:21.528Z,977
2023-01-22T07:54:35.504Z,980
2023-01-22T07:55:48.486Z,983
2023-01-22T07:56:52.460Z,985
2023-01-22T07:58:25.285Z,988
2023-01-22T07:59:20.464Z,991
2023-01-22T08:00:23.360Z,992
2023-01-22T08:01:37.092Z,992
2023-01-22T08:02:50.088Z,995
2023-01-22T08:03:53.964Z,996
2023-01-22T08:05:06.885Z,998
2023-01-22T08:06:21.005Z,1002
2023-01-22T08:07:24.292Z,1002
2023-01-22T08:08:38.507Z,1006
2023-01-22T08:09:51.726Z,1010
2023-01-22T08:10:55.472Z,1012
2023-01-22T08:12:08.393Z,1015
2023-01-22T08:13:21.978Z,1017
2023-01-22T08:14:24.954Z,1022
2023-01-22T08:15:38.463Z,1028
2023-01-22T08:16:51.385Z,1028
2023-01-22T08:18:05.149Z,1033
2023-01-22T08:19:08.109Z,1034
2023-01-22T08:20:21.973Z,1039
2023-01-22T08:21:34.872Z,1046
2023-01-22T08:22:39.006Z,1056
2023-01-22T08:23:51.917Z,1073
2023-01-22T08:25:05.496Z,1096
2023-01-22T08:26:08.540Z,1106
2023-01-22T08:27:22.508Z,1121
2023-01-22T08:28:35.453Z,1122
2023-01-22T08:29:48.989Z,1130
2023-01-22T08:30:51.933Z,1138
2023-01-22T08:32:05.646Z,1141
2023-01-22T08:33:18.660Z,1146
2023-01-22T08:34:22.504Z,1149
2023-01-22T08:35:35.356Z,1153
2023-01-22T08:36:49.008Z,1160
2023-01-22T08:37:51.868Z,1162
2023-01-22T08:39:05.539Z,1160
2023-01-22T08:40:18.558Z,1165
2023-01-22T08:41:32.468Z,1164
2023-01-22T08:42:35.257Z,1166
2023-01-22T08:43:48.992Z,1170
2023-01-22T08:45:01.692Z,1171
2023-01-22T08:46:05.104Z,1174
2023-01-22T08:47:17.805Z,1180
2023-01-22T08:48:31.529Z,1181
2023-01-22T08:49:44.161Z,1186
2023-01-22T08:50:47.534Z,1189
2023-01-22T08:52:00.288Z,1191
2023-01-22T08:53:14.057Z,1193
2023-01-22T08:54:16.819Z,1198
2023-01-22T08:55:30.532Z,1205
2023-01-22T08:56:43.137Z,1217
2023-01-22T08:57:56.535Z,1239
2023-01-22T08:58:59.297Z,1269
2023-01-22T09:00:12.514Z,1303
2023-01-22T09:01:25.164Z,1312
2023-01-22T09:02:29.102Z,1320
2023-01-22T09:03:41.780Z,1312
2023-01-22T09:04:55.023Z,1317
2023-01-22T09:05:57.661Z,1303
2023-01-22T09:07:10.987Z,1267
2023-01-22T09:08:23.579Z,1169
2023-01-22T09:09:36.991Z,987
2023-01-22T09:10:39.668Z,833
2023-01-22T09:11:53.003Z,777
2023-01-22T09:13:05.565Z,779
2023-01-22T09:14:19.000Z,751
2023-01-22T09:15:21.570Z,748
2023-01-22T09:16:35.070Z,740
2023-01-22T09:17:47.859Z,729
2023-01-22T09:18:51.526Z,719
2023-01-22T09:20:04.174Z,716
2023-01-22T09:21:17.601Z,710
2023-01-22T09:22:30.307Z,715
2023-01-22T09:23:33.995Z,717
2023-01-22T09:24:46.654Z,717
2023-01-22T09:26:00.096Z,723
2023-01-22T09:27:02.989Z,725
2023-01-22T09:28:16.491Z,728
2023-01-22T09:29:29.110Z,737
2023-01-22T09:30:43.333Z,745
2023-01-22T09:31:46.230Z,767
2023-01-22T09:32:59.523Z,791
2023-01-22T09:34:12.783Z,803
2023-01-22T09:35:16.711Z,831
2023-01-22T09:36:29.429Z,848
2023-01-22T09:37:42.511Z,863
2023-01-22T09:38:44.974Z,867
2023-01-22T09:39:58.535Z,881
2023-01-22T09:41:10.939Z,888
2023-01-22T09:42:24.071Z,892
2023-01-22T09:43:26.768Z,889
2023-01-22T09:44:40.185Z,893
2023-01-22T09:45:53.334Z,896
2023-01-22T09:46:57.038Z,901
2023-01-22T09:48:09.618Z,909
2023-01-22T09:49:22.990Z,917
2023-01-22T09:50:26.623Z,931
2023-01-22T09:51:40.129Z,949
2023-01-22T09:52:52.746Z,959
2023-01-22T09:54:06.012Z,974
2023-01-22T09:55:08.656Z,981
2023-01-22T09:56:22.011Z,986
2023-01-22T09:57:34.618Z,990
2023-01-22T09:58:38.003Z,991
2023-01-22T09:59:50.548Z,991
2023-01-22T10:01:03.993Z,991
2023-01-22T10:02:06.712Z,994
2023-01-22T10:03:22.716Z,992
2023-01-22T10:04:35.558Z,998
2023-01-22T10:05:39.015Z,1004
2023-01-22T10:06:51.604Z,1013
2023-01-22T10:08:05.125Z,1017
2023-01-22T10:09:07.726Z,1027
2023-01-22T10:10:21.201Z,1034
2023-01-22T10:11:33.809Z,1042
2023-01-22T10:12:47.007Z,1042
2023-01-22T10:13:49.594Z,1045
2023-01-22T10:15:03.124Z,1051
2023-01-22T10:16:15.653Z,1060
2023-01-22T10:17:19.497Z,1067
2023-01-22T10:18:32.121Z,1078
2023-01-22T10:19:45.758Z,1085
2023-01-22T10:20:58.283Z,1097
2023-01-22T10:22:01.592Z,1110
2023-01-22T10:23:14.279Z,1119
2023-01-22T10:24:27.522Z,1128
2023-01-22T10:25:30.105Z,1135
2023-01-22T10:26:43.543Z,1140
2023-01-22T10:27:56.048Z,1156
2023-01-22T10:29:09.516Z,1169
2023-01-22T10:30:12.086Z,1184
2023-01-22T10:31:26.268Z,1208
2023-01-22T10:32:38.963Z,1229
2023-01-22T10:33:43.047Z,1234
2023-01-22T10:34:55.677Z,1253
2023-01-22T10:36:09.712Z,1259
2023-01-22T10:37:12.377Z,1271
2023-01-22T10:38:25.513Z,1286
2023-01-22T10:39:38.041Z,1312
2023-01-22T10:40:51.552Z,1336
2023-01-22T10:41:54.127Z,1360
2023-01-22T10:43:07.528Z,1375
2023-01-22T10:44:20.067Z,1387
2023-01-22T10:45:23.521Z,1395
2023-01-22T10:46:36.051Z,1400
2023-01-22T10:47:49.521Z,1405
2023-01-22T10:48:52.103Z,1410
2023-01-22T10:50:05.521Z,1417
2023-01-22T10:51:18.146Z,1424
2023-01-22T10:52:31.534Z,1433
2023-01-22T10:53:34.140Z,1443
2023-01-22T10:54:47.525Z,1460
2023-01-22T10:56:00.195Z,1480
2023-01-22T10:57:04.045Z,1489
2023-01-22T10:58:16.613Z,1496
2023-01-22T10:59:30.151Z,1507
2023-01-22T11:00:51.893Z,1518
2023-01-22T11:01:46.095Z,1525
2023-01-22T11:02:58.626Z,1531
2023-01-22T11:04:12.042Z,1534
2023-01-22T11:05:14.614Z,1528
2023-01-22T11:06:28.032Z,1523
2023-01-22T11:07:40.563Z,1517
2023-01-22T11:08:54.035Z,1508
2023-01-22T11:09:56.670Z,1498
2023-01-22T11:11:10.021Z,1470
2023-01-22T11:13:39.506Z,1379
2023-01-22T11:14:42.301Z,1355
2023-01-22T11:15:56.269Z,1348
2023-01-22T11:16:59.057Z,1330
2023-01-22T11:18:12.583Z,1325
2023-01-22T11:19:36.657Z,1309
2023-01-22T11:20:30.615Z,1304
2023-01-22T11:21:43.110Z,1289
2023-01-22T11:22:56.619Z,1273
2023-01-22T11:23:59.316Z,1253
2023-01-22T11:25:12.566Z,1208
2023-01-22T11:26:25.061Z,1201
2023-01-22T11:27:28.596Z,1192
2023-01-22T11:28:41.175Z,1183
2023-01-22T11:29:54.625Z,1173
2023-01-22T11:30:57.317Z,1164
2023-01-22T11:32:10.608Z,1164
2023-01-22T11:33:23.143Z,1151
2023-01-22T11:34:36.580Z,1148
2023-01-22T11:35:39.185Z,1144
2023-01-22T11:36:52.597Z,1141
2023-01-22T11:38:05.117Z,1140
2023-01-22T11:39:18.720Z,1138
2023-01-22T11:40:21.739Z,1132
2023-01-22T11:41:36.107Z,1127
2023-01-22T11:42:38.727Z,1126
2023-01-22T11:43:52.194Z,1125
2023-01-22T11:45:04.750Z,1123
2023-01-22T11:46:18.297Z,1120
2023-01-22T11:47:21.047Z,1117
2023-01-22T11:48:34.618Z,1115
2023-01-22T11:49:47.159Z,1110
2023-01-22T11:50:50.633Z,1108
2023-01-22T11:52:03.200Z,1099
2023-01-22T11:53:16.597Z,1085
2023-01-22T11:54:29.134Z,1066
2023-01-22T11:55:32.663Z,967
2023-01-22T11:56:45.246Z,867
2023-01-22T11:57:58.585Z,894
2023-01-22T11:59:01.233Z,872
2023-01-22T12:00:14.579Z,854
2023-01-22T12:01:27.189Z,848
2023-01-22T12:02:40.636Z,850
2023-01-22T12:03:43.416Z,837
2023-01-22T12:04:57.106Z,839
2023-01-22T12:06:09.716Z,822
2023-01-22T12:07:13.105Z,819
2023-01-22T12:08:25.802Z,805
2023-01-22T12:09:39.102Z,804
2023-01-22T12:10:54.723Z,800
2023-01-22T12:11:58.599Z,793
2023-01-22T12:13:11.252Z,789
2023-01-22T12:14:14.615Z,785
2023-01-22T12:15:27.268Z,788
2023-01-22T12:16:40.588Z,789
2023-01-22T12:17:53.260Z,790
2023-01-22T12:18:57.119Z,790
2023-01-22T12:20:09.791Z,791
2023-01-22T12:21:23.124Z,789
2023-01-22T12:22:25.811Z,788
2023-01-22T12:23:39.133Z,789
2023-01-22T12:25:01.770Z,788
2023-01-22T12:26:05.650Z,783
2023-01-22T12:27:08.321Z,784
2023-01-22T12:28:21.635Z,781
2023-01-22T12:29:34.307Z,780
2023-01-22T12:30:47.640Z,777
2023-01-22T12:31:50.419Z,783
2023-01-22T12:33:05.401Z,787
2023-01-22T12:34:08.350Z,792
2023-01-22T12:35:21.596Z,790
2023-01-22T12:36:34.234Z,790
2023-01-22T12:37:37.612Z,796
2023-01-22T12:38:50.263Z,798
2023-01-22T12:40:03.667Z,800
2023-01-22T12:41:16.363Z,807
2023-01-22T12:42:19.649Z,809
2023-01-22T12:43:32.269Z,815
2023-01-22T12:44:45.598Z,817
2023-01-22T12:45:48.257Z,814
2023-01-22T12:47:01.846Z,813
2023-01-22T12:48:14.521Z,814
2023-01-22T12:49:28.095Z,814
2023-01-22T12:50:31.409Z,815
2023-01-22T12:51:45.156Z,813
2023-01-22T12:52:57.832Z,813
2023-01-22T12:54:01.109Z,808
2023-01-22T12:55:13.928Z,808
2023-01-22T12:56:27.104Z,804
2023-01-22T12:57:29.818Z,803
2023-01-22T12:58:43.110Z,802
2023-01-22T12:59:55.753Z,802
2023-01-22T13:01:09.203Z,800
2023-01-22T13:02:12.087Z,801
2023-01-22T13:03:31.324Z,801
2023-01-22T13:04:34.943Z,798
2023-01-22T13:05:48.625Z,798
2023-01-22T13:06:51.302Z,798
2023-01-22T13:08:04.637Z,796
2023-01-22T13:09:17.275Z,797
2023-01-22T13:10:30.618Z,795
2023-01-22T13:11:33.307Z,794
2023-01-22T13:12:47.148Z,794
2023-01-22T13:14:13.586Z,792
2023-01-22T13:15:08.158Z,792
2023-01-22T13:16:20.844Z,789
2023-01-22T13:17:24.651Z,788
2023-01-22T13:18:37.280Z,791
2023-01-22T13:19:50.627Z,790
2023-01-22T13:21:03.242Z,787
2023-01-22T13:22:06.630Z,787
2023-01-22T13:23:21.469Z,786
2023-01-22T13:24:25.122Z,785
2023-01-22T13:25:37.768Z,782
2023-01-22T13:26:51.147Z,783
2023-01-22T13:28:03.785Z,782
2023-01-22T13:29:07.139Z,781
2023-01-22T13:30:20.056Z,779
2023-01-22T13:31:34.169Z,779
2023-01-22T13:32:36.968Z,780
2023-01-22T13:33:50.651Z,780
2023-01-22T13:35:03.319Z,781
2023-01-22T13:36:06.749Z,780
2023-01-22T13:37:19.659Z,777
2023-01-22T13:38:33.234Z,774
2023-01-22T13:39:45.964Z,773
2023-01-22T13:40:51.438Z,772
2023-01-22T13:42:04.605Z,774
2023-01-22T13:43:08.227Z,776
2023-01-22T13:44:21.001Z,775
2023-01-22T13:45:34.613Z,777
2023-01-22T13:46:37.412Z,776
2023-01-22T13:47:50.821Z,775
2023-01-22T13:49:03.509Z,771
2023-01-22T13:50:17.587Z,761
2023-01-22T13:51:20.614Z,758
2023-01-22T13:52:34.187Z,751
2023-01-22T13:53:48.965Z,754
2023-01-22T13:54:54.120Z,751
2023-01-22T13:56:06.770Z,750
2023-01-22T13:57:10.179Z,746
2023-01-22T13:58:22.824Z,739
2023-01-22T13:59:36.191Z,738
2023-01-22T14:00:39.050Z,736
2023-01-22T14:01:52.739Z,734
2023-01-22T14:03:05.450Z,742
2023-01-22T14:04:21.692Z,750
2023-01-22T14:05:24.532Z,763
2023-01-22T14:06:38.174Z,784
2023-01-22T14:07:41.147Z,783
2023-01-22T14:08:54.712Z,799
2023-01-22T14:10:07.446Z,810
2023-01-22T14:11:11.130Z,819
2023-01-22T14:12:24.046Z,827
2023-01-22T14:13:37.677Z,835
2023-01-22T14:14:40.344Z,839
2023-01-22T14:15:53.805Z,845
2023-01-22T14:17:06.616Z,849
2023-01-22T14:18:20.199Z,852
2023-01-22T14:19:22.974Z,853
2023-01-22T14:20:36.736Z,857
2023-01-22T14:21:49.222Z,856
2023-01-22T14:22:52.623Z,855
2023-01-22T14:24:05.305Z,855
2023-01-22T14:25:18.634Z,854
2023-01-22T14:26:31.187Z,854
2023-01-22T14:27:34.643Z,855
2023-01-22T14:28:47.247Z,856
2023-01-22T14:30:00.665Z,860
2023-01-22T14:31:03.395Z,861
2023-01-22T14:32:17.163Z,861
2023-01-22T14:33:29.749Z,866
2023-01-22T14:34:33.160Z,869
2023-01-22T14:35:45.811Z,870
2023-01-22T14:36:59.154Z,876
2023-01-22T14:38:11.850Z,877
2023-01-22T14:39:15.134Z,882
2023-01-22T14:40:27.749Z,886
2023-01-22T14:41:41.148Z,889
2023-01-22T14:42:43.811Z,895
2023-01-22T14:43:57.233Z,898
2023-01-22T14:45:10.166Z,900
2023-01-22T14:46:23.623Z,900
2023-01-22T14:47:26.340Z,901
2023-01-22T14:48:39.644Z,903
2023-01-22T14:50:02.097Z,906
2023-01-22T14:51:05.714Z,907
2023-01-22T14:52:08.465Z,914
2023-01-22T14:53:22.153Z,920
2023-01-22T14:54:34.727Z,919
2023-01-22T14:55:38.182Z,922
2023-01-22T14:56:50.763Z,925
2023-01-22T14:58:04.153Z,930
2023-01-22T14:59:06.792Z,930
2023-01-22T15:00:20.433Z,934
2023-01-22T15:01:33.220Z,937
2023-01-22T15:02:46.625Z,940
2023-01-22T15:03:49.244Z,942
2023-01-22T15:05:02.667Z,945
2023-01-22T15:06:15.231Z,950
2023-01-22T15:07:18.685Z,956
2023-01-22T15:08:31.289Z,962
2023-01-22T15:09:44.682Z,965
2023-01-22T15:10:57.272Z,969
2023-01-22T15:12:00.680Z,972
2023-01-22T15:13:13.267Z,971
2023-01-22T15:14:26.627Z,974
2023-01-22T15:15:29.320Z,978
2023-01-22T15:16:42.674Z,980
2023-01-22T15:17:55.234Z,983
2023-01-22T15:19:08.655Z,986
2023-01-22T15:20:11.250Z,988
2023-01-22T15:21:24.681Z,987
2023-01-22T15:22:37.251Z,989
2023-01-22T15:23:40.638Z,991
2023-01-22T15:24:53.201Z,995
2023-01-22T15:26:06.657Z,997
2023-01-22T15:27:19.540Z,997
2023-01-22T15:28:23.138Z,999
2023-01-22T15:29:55.611Z,998
2023-01-22T15:30:51.038Z,1002
2023-01-22T15:31:54.430Z,1005
2023-01-22T15:33:08.159Z,1011
2023-01-22T15:34:11.679Z,1013
2023-01-22T15:35:27.558Z,1017
2023-01-22T15:36:40.179Z,1015
2023-01-22T15:37:43.663Z,1018
2023-01-22T15:38:56.186Z,1021
2023-01-22T15:40:09.641Z,1022
2023-01-22T15:41:12.257Z,1024
2023-01-22T15:42:25.643Z,1026
2023-01-22T15:43:38.197Z,1026
2023-01-22T15:44:51.632Z,1026
2023-01-22T15:45:54.254Z,1030
2023-01-22T15:47:08.167Z,1032
2023-01-22T15:48:20.704Z,1034
2023-01-22T15:49:24.218Z,1038
2023-01-22T15:50:36.885Z,1038
2023-01-22T15:51:50.643Z,1040
2023-01-22T15:52:53.226Z,1041
2023-01-22T15:54:06.688Z,1040
2023-01-22T15:55:19.314Z,1040
2023-01-22T15:56:32.657Z,1038
2023-01-22T15:57:35.251Z,1039
2023-01-22T15:58:48.674Z,1037
2023-01-22T16:00:01.213Z,1037
2023-01-22T16:01:04.701Z,1039